Flight Track Log - Related Links

Times and Time Zones

All times are in EDT time to prevent confusion due to time zone crossing. See the UAL4336 flight status page for this flight to view local times or setup timezone preferences in your user account.

Time Position Orientation Groundspeed Altitude Reporting Facility
EDT Latitude Longitude Course Direction KTS MPH feet Rate Location/Type
Mon 06:23:32 AM 40.0008 -82.8747 270° West 159 183 1,300  Level Indianapolis Center
Mon 06:24:20 AM 40.0022 -82.8203 88° East 186 214 2,900 1,846 Climbing Indianapolis Center
Mon 06:24:50 AM 40.0058 -82.7886 82° East 189 217 3,700 2,044 Climbing Indianapolis Center
Mon 06:25:51 AM 40.0531 -82.7936 355° North 213 245 6,000 1,785 Climbing Indianapolis Center
Mon 06:26:00 AM 40.0000 -83.2868 270° West  Level FlightAware Approximate
Mon 06:26:51 AM 40.0556 -82.8803 272° West 240 276 7,300  Level Indianapolis Center
Mon 06:27:00 AM 40.0000 -83.4221 270° West  Level FlightAware Approximate
Mon 06:27:52 AM 40.0608 -82.9744 274° West 255 293 9,100  Level Indianapolis Center
Mon 06:28:00 AM 40.0000 -83.5574 270° West  Level FlightAware Approximate
Mon 06:28:52 AM 40.0219 -83.0672 241° Southwest 287 330 10,300  Level Indianapolis Center
Mon 06:29:53 AM 39.9731 -83.1683 238° Southwest 323 372 11,000 992 Climbing Indianapolis Center
Mon 06:30:53 AM 39.9203 -83.2775 238° Southwest 349 402 12,300 1,339 Climbing Indianapolis Center
Mon 06:31:54 AM 39.8672 -83.3872 238° Southwest 352 405 13,700 1,279 Climbing Indianapolis Center
Mon 06:32:55 AM 39.8194 -83.4861 238° Southwest 352 405 14,900 1,091 Climbing Indianapolis Center
Mon 06:33:55 AM 39.7656 -83.5958 237° Southwest 358 412 15,900 1,041 Climbing Indianapolis Center
Mon 06:34:56 AM 39.7108 -83.7078 238° Southwest 362 417 17,000 1,041 Climbing Indianapolis Center
Mon 06:35:56 AM 39.6550 -83.8208 237° Southwest 367 422 18,000 843 Climbing Indianapolis Center
Mon 06:36:57 AM 39.5997 -83.9333 237° Southwest 368 423 18,700 836 Climbing Indianapolis Center
Mon 06:37:58 AM 39.5433 -84.0458 237° Southwest 368 423 19,700 992 Climbing Indianapolis Center
Mon 06:38:58 AM 39.4869 -84.1606 238° Southwest 373 429 20,700 992 Climbing Indianapolis Center
Mon 06:39:59 AM 39.4294 -84.2758 237° Southwest 377 434 21,700 934 Climbing Indianapolis Center
Mon 06:41:00 AM 39.3711 -84.3900 237° Southwest 377 434 22,600 942 Climbing Indianapolis Center
Mon 06:42:00 AM 39.3142 -84.5067 238° Southwest 380 437 23,600 992 Climbing Indianapolis Center
Mon 06:43:01 AM 39.2550 -84.6189 236° Southwest 375 432 24,600 992 Climbing Indianapolis Center
Mon 06:44:01 AM 39.1997 -84.7325 238° Southwest 370 426 25,600 992 Climbing Indianapolis Center
Mon 06:45:02 AM 39.1425 -84.8431 236° Southwest 369 425 26,600 984 Climbing Indianapolis Center
Mon 06:46:03 AM 39.0881 -84.9514 237° Southwest 365 420 27,600 934 Climbing Indianapolis Center
Mon 06:47:04 AM 39.0328 -85.0603 237° Southwest 362 417 28,500 893 Climbing Indianapolis Center
Mon 06:48:04 AM 38.9772 -85.1678 236° Southwest 361 415 29,400 942 Climbing Indianapolis Center
Mon 06:49:05 AM 38.9219 -85.2750 236° Southwest 358 412 30,400 1,033 Climbing Indianapolis Center
Mon 06:50:06 AM 38.8556 -85.4028 236° Southwest 358 412 31,500 984 Climbing Indianapolis Center
Mon 06:51:07 AM 38.7964 -85.5050 233° Southwest 356 410 32,400 942 Climbing Indianapolis Center
Mon 06:52:07 AM 38.7294 -85.6011 228° Southwest 359 413 33,400 942 Climbing Indianapolis Center
Mon 06:53:08 AM 38.6622 -85.6953 228° Southwest 358 412 34,300 787 Climbing Indianapolis Center
Mon 06:54:09 AM 38.5967 -85.7878 228° Southwest 350 403 35,000 393 Climbing Indianapolis Center
Mon 06:55:10 AM 38.5308 -85.8847 229° Southwest 357 411 35,100 492 Climbing Indianapolis Center
Mon 06:56:11 AM 38.4617 -85.9819 228° Southwest 366 421 36,000 443 Climbing Indianapolis Center
Mon 06:57:12 AM 38.3939 -86.0778 228° Southwest 363 418 36,000  Level Indianapolis Center
Mon 06:58:12 AM 38.3233 -86.1786 228° Southwest 377 434 36,000  Level Indianapolis Center
Mon 06:59:13 AM 38.2506 -86.2831 228° Southwest 389 448 36,000  Level Indianapolis Center
Mon 07:00:14 AM 38.1747 -86.3878 227° Southwest 398 458 36,000  Level Indianapolis Center
Mon 07:01:15 AM 38.0986 -86.4944 228° Southwest 402 463 36,000  Level Indianapolis Center
Mon 07:02:16 AM 38.0233 -86.6003 228° Southwest 400 460 36,000  Level Indianapolis Center
Mon 07:03:17 AM 37.9475 -86.7050 227° Southwest 399 459 36,000  Level Indianapolis Center
Mon 07:04:18 AM 37.8722 -86.8092 228° Southwest 396 456 36,000  Level Indianapolis Center
Mon 07:05:19 AM 37.7975 -86.9133 228° Southwest 395 455 36,000  Level Indianapolis Center
Mon 07:06:20 AM 37.7225 -87.0167 227° Southwest 395 455 36,000  Level Indianapolis Center
Mon 07:07:21 AM 37.6472 -87.1186 227° Southwest 393 452 36,000  Level Indianapolis Center
Mon 07:08:22 AM 37.5675 -87.2278 227° Southwest 397 457 36,000  Level Indianapolis Center
Mon 07:09:23 AM 37.4917 -87.3294 227° Southwest 397 457 36,000  Level Indianapolis Center
Mon 07:10:24 AM 37.4158 -87.4328 227° Southwest 398 458 36,000  Level Indianapolis Center
Mon 07:11:25 AM 37.3397 -87.5381 228° Southwest 402 463 36,000  Level Indianapolis Center
Mon 07:12:26 AM 37.2617 -87.6417 227° Southwest 405 466 36,000  Level Indianapolis Center
Mon 07:13:27 AM 37.1831 -87.7483 227° Southwest 410 472 36,000  Level Indianapolis Center
Mon 07:14:28 AM 37.1042 -87.8536 227° Southwest 411 473 36,000  Level Indianapolis Center
Mon 07:15:29 AM 37.0256 -87.9600 227° Southwest 411 473 36,000  Level Indianapolis Center
Mon 07:16:30 AM 36.9456 -88.0658 227° Southwest 413 475 36,000  Level Indianapolis Center
Mon 07:17:31 AM 36.8664 -88.1708 227° Southwest 413 475 36,000  Level Indianapolis Center
Mon 07:18:32 AM 36.7872 -88.2761 227° Southwest 413 475 36,000  Level Indianapolis Center
Mon 07:19:33 AM 36.7017 -88.3953 228° Southwest 410 472 36,000  Level Memphis Center
Mon 07:20:33 AM 36.6219 -88.4981 226° Southwest 410 472 36,000  Level Memphis Center
Mon 07:21:33 AM 36.5422 -88.6006 226° Southwest 410 472 36,000  Level Memphis Center
Mon 07:22:33 AM 36.4725 -88.6900 226° Southwest 410 472 36,000  Level Memphis Center
Mon 07:23:33 AM 36.3928 -88.7972 227° Southwest 405 466 36,000  Level Memphis Center
Mon 07:24:33 AM 36.3125 -88.8942 224° Southwest 405 466 36,000  Level Memphis Center
Mon 07:25:33 AM 36.2325 -88.9983 226° Southwest 405 466 36,000  Level Memphis Center
Mon 07:26:33 AM 36.1522 -89.1025 226° Southwest 405 466 36,000  Level Memphis Center
Mon 07:27:33 AM 36.0739 -89.2039 226° Southwest 405 466 36,000  Level Memphis Center
Mon 07:28:33 AM 35.9978 -89.3000 226° Southwest 405 466 36,000  Level Memphis Center
Mon 07:29:33 AM 35.9214 -89.4008 227° Southwest 405 466 36,000  Level Memphis Center
Mon 07:30:33 AM 35.8428 -89.4992 225° Southwest 405 466 36,000  Level Memphis Center
Mon 07:31:33 AM 35.7642 -89.5972 225° Southwest 405 466 36,000  Level Memphis Center
Mon 07:32:33 AM 35.6856 -89.7078 229° Southwest 405 466 36,000  Level Memphis Center
Mon 07:33:33 AM 35.6089 -89.8028 225° Southwest 397 457 36,000  Level Memphis Center
Mon 07:34:33 AM 35.5300 -89.9031 226° Southwest 397 457 36,000  Level Memphis Center
Mon 07:35:33 AM 35.4511 -90.0028 226° Southwest 397 457 36,000  Level Memphis Center
Mon 07:36:33 AM 35.3722 -90.1025 226° Southwest 402 463 36,000  Level Memphis Center
Mon 07:37:33 AM 35.2931 -90.2019 226° Southwest 407 468 36,000  Level Memphis Center
Mon 07:38:33 AM 35.2139 -90.2986 225° Southwest 407 468 36,000  Level Memphis Center
Mon 07:39:33 AM 35.1367 -90.3978 226° Southwest 407 468 36,000  Level Memphis Center
Mon 07:40:33 AM 35.0572 -90.4967 226° Southwest 407 468 36,000  Level Memphis Center
Mon 07:41:33 AM 34.9842 -90.5800 223° Southwest 407 468 36,000  Level Memphis Center
Mon 07:42:33 AM 34.9069 -90.6786 226° Southwest 407 468 36,000  Level Memphis Center
Mon 07:43:33 AM 34.8294 -90.7744 225° Southwest 407 468 36,000  Level Memphis Center
Mon 07:44:33 AM 34.7517 -90.8703 225° Southwest 407 468 36,000  Level Memphis Center
Mon 07:45:33 AM 34.6719 -90.9683 225° Southwest 407 468 36,000  Level Memphis Center
Mon 07:46:33 AM 34.5922 -91.0636 225° Southwest 407 468 36,000  Level Memphis Center
Mon 07:47:33 AM 34.5167 -91.1561 225° Southwest 401 461 36,000  Level Memphis Center
Mon 07:48:33 AM 34.4347 -91.2511 224° Southwest 406 467 36,000  Level Memphis Center
Mon 07:49:33 AM 34.3503 -91.3533 225° Southwest 401 461 36,000  Level Memphis Center
Mon 07:50:33 AM 34.2722 -91.4481 225° Southwest 401 461 36,000  Level Memphis Center
Mon 07:51:33 AM 34.1922 -91.5400 224° Southwest 401 461 36,000  Level Memphis Center
Mon 07:52:33 AM 34.1142 -91.6367 226° Southwest 406 467 36,000  Level Memphis Center
Mon 07:53:33 AM 34.0506 -91.7236 229° Southwest 401 461 36,000  Level Memphis Center
Mon 07:54:33 AM 33.9703 -91.8150 223° Southwest 401 461 36,000  Level Memphis Center
Mon 07:55:33 AM 33.8919 -91.9036 223° Southwest 396 456 36,000  Level Memphis Center
Mon 07:57:54 AM 33.7014 -92.1333 225° Southwest 399 459 36,000  Level Fort Worth Center
Mon 07:58:54 AM 33.5931 -92.1922 204° Southwest 416 479 36,000  Level Fort Worth Center
Mon 07:59:54 AM 33.4758 -92.2289 195° South 423 487 36,000  Level Fort Worth Center
Mon 08:00:54 AM 33.3519 -92.2636 193° South 435 501 36,000  Level Fort Worth Center
Mon 08:01:54 AM 33.2303 -92.3003 194° South 454 522 36,000  Level Fort Worth Center
Mon 08:02:54 AM 33.1086 -92.3372 194° South 454 522 36,000  Level Fort Worth Center
Mon 08:03:54 AM 32.9850 -92.3714 193° South 454 522 36,000  Level Fort Worth Center
Mon 08:04:54 AM 32.8633 -92.4081 194° South 454 522 36,000  Level Fort Worth Center
Mon 08:05:54 AM 32.7436 -92.4442 194° South 449 517 36,000  Level Fort Worth Center
Mon 08:06:54 AM 32.6239 -92.4806 194° South 449 517 36,000  Level Fort Worth Center
Mon 08:09:01 AM 32.3717 -92.5608 195° South 440 506 36,000  Level Houston Center
Mon 08:10:02 AM 32.2531 -92.5969 194° South 440 506 36,000  Level Houston Center
Mon 08:11:03 AM 32.1344 -92.6322 194° South 440 506 36,000  Level Houston Center
Mon 08:12:05 AM 32.0153 -92.6675 194° South 441 507 36,000  Level Houston Center
Mon 08:13:06 AM 31.9144 -92.7342 209° Southwest 418 481 36,000  Level Houston Center
Mon 08:14:08 AM 31.8275 -92.8206 220° Southwest 411 473 36,000  Level Houston Center
Mon 08:15:09 AM 31.7403 -92.9039 219° Southwest 408 470 36,000  Level Houston Center
Mon 08:16:10 AM 31.6550 -92.9858 219° Southwest 400 460 36,000  Level Houston Center
Mon 08:17:12 AM 31.5706 -93.0675 219° Southwest 395 455 36,000  Level Houston Center
Mon 08:18:13 AM 31.4683 -93.1650 219° Southwest 396 456 36,000  Level Houston Center
Mon 08:19:15 AM 31.3839 -93.2456 219° Southwest 394 453 36,000 -244 Level Houston Center
Mon 08:20:16 AM 31.2881 -93.3217 214° Southwest 401 461 35,500 -927 Descending Houston Center
Mon 08:21:18 AM 31.1725 -93.3286 183° South 445 512 34,100 -1,463 Descending Houston Center
Mon 08:22:19 AM 31.0422 -93.3111 173° South 467 537 32,500 -1,512 Descending Houston Center
Mon 08:23:21 AM 30.9128 -93.2978 175° South 467 537 31,000 -1,463 Descending Houston Center
Mon 08:24:22 AM 30.7875 -93.2858 175° South 454 522 29,500 -1,463 Descending Houston Center
Mon 08:25:24 AM 30.6647 -93.3006 186° South 450 518 28,000 -1,659 Descending Houston Center
Mon 08:26:25 AM 30.5206 -93.3486 196° South 443 510 26,100 -1,659 Descending Houston Center
Mon 08:27:27 AM 30.4281 -93.4139 211° Southwest 404 465 24,600 -1,016 Descending Houston Center
Mon 08:28:29 AM 30.3867 -93.5275 247° West 387 445 24,000 -293 Descending Houston Center
Mon 08:29:30 AM 30.3631 -93.6361 256° West 383 441 24,000 -878 Level Houston Center
Mon 08:30:32 AM 30.3372 -93.7528 256° West 377 434 22,200 -2,000 Descending Houston Center
Mon 08:31:33 AM 30.3067 -93.8869 255° West 361 415 19,900 -2,049 Descending Houston Center
Mon 08:32:35 AM 30.2817 -93.9950 255° West 350 403 18,000 -1,794 Descending Houston Center
Mon 08:33:20 AM 30.2639 -94.0750 256° West 338 389 16,700 -1,770 Descending Houston Center
Mon 08:33:36 AM 30.2581 -94.1008 255° West 342 394 16,200 -1,742 Descending Houston Center
Mon 08:33:51 AM 30.2525 -94.1275 256° West 338 389 15,800 -1,645 Descending Houston Center
Mon 08:34:38 AM 30.2339 -94.2058 255° West 338 389 14,500 -1,651 Descending Houston Center
Mon 08:35:40 AM 30.2103 -94.3072 255° West 330 380 12,800 -1,778 Descending Houston Center
Mon 08:35:59 AM 30.1992 -94.3522 254° West 320 368 12,100 -1,082 Descending Houston Center
Mon 08:36:41 AM 30.1828 -94.4017 249° West 314 361 11,700 -1,212 Descending Houston Center
Mon 08:37:43 AM 30.1464 -94.4861 244° Southwest 297 342 10,000 -1,852 Descending Houston Center
Mon 08:38:02 AM 30.1297 -94.5233 243° Southwest 280 322 9,200 -2,164 Descending Houston Center
Mon 08:38:44 AM 30.1086 -94.5814 247° West 281 323 7,800 -1,869 Descending Houston Center
Mon 08:39:03 AM 30.0964 -94.6097 244° Southwest 276 318 7,300 -774 Descending Houston Center
Mon 08:39:46 AM 30.0761 -94.6617 246° West 277 319 7,000 -295 Descending Houston Center
Mon 08:40:04 AM 30.0683 -94.6908 253° West 271 312 7,000 -97 Level Houston Center
Mon 08:40:48 AM 30.0539 -94.7447 253° West 274 315 6,900 -393 Descending Houston Center
Mon 08:41:05 AM 30.0447 -94.7733 250° West 277 319 6,600 -787 Descending Houston Center
Mon 08:41:49 AM 30.0325 -94.8289 256° West 274 315 6,100 -590 Descending Houston Center
Mon 08:42:06 AM 30.0214 -94.8583 246° West 275 316 6,000 -97 Descending Houston Center
Mon 08:42:51 AM 30.0056 -94.9100 251° West 273 314 6,000 97 Level Houston Center
Mon 08:43:08 AM 30.0047 -94.9475 269° West 270 311 6,100 -194 Climbing Houston Center
Mon 08:43:53 AM 30.0078 -94.9975 274° West 268 308 5,800 -787 Descending Houston Center
Mon 08:44:09 AM 30.0083 -95.0314 271° West 266 306 5,300 -1,279 Descending Houston Center
Mon 08:44:54 AM 30.0078 -95.0750 269° West 258 297 4,500 -1,279 Descending Houston Center
Mon 08:45:10 AM 30.0069 -95.1064 268° West 231 266 4,000 -1,355 Descending Houston Center
Mon 08:45:56 AM 30.0078 -95.1600 271° West 232 267 3,100 -1,180 Descending Houston Center
Mon 08:46:11 AM 30.0069 -95.1739 266° West 210 242 2,800 -1,200 Descending Houston Center

Login

Don't have an account? Register now (free) for customized features, flight alerts, and more!